Terminal Aerodrome Forecast
Issued by NWS

Home | Current Version | Previous Version | Text Only | Print | Product List | Glossary On
Versions: 1 2 3 4 5 6 7 8 9 10 11 12 13 14 15 16 17
768
FTAK31 PAJN 261723
TAFAPG
TAF
PAPG 261723Z 2618/2718 VRB03KT 3SM -RA BR SCT007 OVC015
     FM262000 15004KT 3SM RA BR SCT005 BKN015 OVC025 WS020/18025KT
     FM270000 16005KT 3SM RA BR BKN010 OVC020 WS020/18035KT
     FM271200 13004KT 6SM -RA OVC025
      AMD LTD TO CLD VIS AND WIND 2706/2715=

USA.gov is the U.S. government's official web portal to all federal, state and local government web resources and services.